Time;durP1;ratioP1;P1;durP2;ratioP2;P2;SDS_P1;SDS_P2;PMS_P1;PMS_P2;Temp;Humidity;BMP_temperature;BMP_pressure;BME280_temperature;BME280_humidity;BME280_pressure;Samples;Min_cycle;Max_cycle;Signal;HPM_P1;HPM_P2
2022/09/12 00:01:19;;;;;;;1.37;1.00;;;;;;;13.97;100.00;96312.88;5093623;28;20204;-73
2022/09/12 00:03:47;;;;;;;1.60;0.90;;;;;;;13.99;100.00;96300.72;5118629;28;20200;-73
2022/09/12 00:06:18;;;;;;;2.23;1.07;;;;;;;14.06;100.00;96311.38;5108570;28;20231;-73
2022/09/12 00:08:47;;;;;;;4.47;1.10;;;;;;;14.12;100.00;96298.69;5105427;28;20215;-73
2022/09/12 00:11:14;;;;;;;1.70;1.03;;;;;;;14.13;100.00;96305.75;5100465;28;20245;-72
2022/09/12 00:13:42;;;;;;;0.90;0.90;;;;;;;14.17;100.00;96307.72;5096574;28;20208;-72
2022/09/12 00:16:16;;;;;;;1.03;1.03;;;;;;;14.21;100.00;96297.97;5112035;28;20204;-73
2022/09/12 00:18:45;;;;;;;4.63;1.47;;;;;;;14.20;100.00;96301.78;5097412;28;20240;-72
2022/09/12 00:21:12;;;;;;;4.43;1.10;;;;;;;14.21;100.00;96297.97;5104318;28;20191;-72
2022/09/12 00:23:39;;;;;;;3.03;1.17;;;;;;;14.17;100.00;96290.59;5097209;28;20215;-73
2022/09/12 00:26:08;;;;;;;1.27;1.17;;;;;;;14.05;100.00;96288.00;5113167;27;20208;-73
2022/09/12 00:28:37;;;;;;;0.90;0.90;;;;;;;13.97;100.00;96280.31;5110947;27;20200;-73
2022/09/12 00:31:06;;;;;;;1.37;0.90;;;;;;;13.95;100.00;96291.41;5116508;27;20196;-72
2022/09/12 00:33:33;;;;;;;1.10;0.97;;;;;;;13.90;100.00;96290.53;5091410;28;20276;-73
2022/09/12 00:36:05;;;;;;;1.73;1.00;;;;;;;13.93;100.00;96279.19;5093773;28;20287;-73
2022/09/12 00:38:32;;;;;;;2.90;0.90;;;;;;;13.90;100.00;96285.94;5102805;28;20196;-72
2022/09/12 00:40:59;;;;;;;2.83;1.03;;;;;;;13.87;100.00;96294.56;5095396;28;20240;-72
2022/09/12 00:43:41;;;;;;;1.17;0.83;;;;;;;13.87;100.00;96277.47;5113619;27;20235;-73
2022/09/12 00:46:19;;;;;;;1.67;0.93;;;;;;;13.84;100.00;96286.94;5095734;27;20280;-72
2022/09/12 00:48:52;;;;;;;2.33;0.90;;;;;;;13.71;100.00;96286.47;5120322;27;20260;-72
2022/09/12 00:51:19;;;;;;;1.07;0.97;;;;;;;13.71;100.00;96275.63;5105712;27;20241;-73
2022/09/12 00:53:50;;;;;;;3.90;1.00;;;;;;;13.71;100.00;96279.16;5114023;27;20208;-72
2022/09/12 00:56:19;;;;;;;1.13;1.03;;;;;;;13.70;100.00;96276.69;5101751;27;20216;-73
2022/09/12 00:58:53;;;;;;;5.60;1.10;;;;;;;13.69;100.00;96277.78;5098051;27;20200;-72
2022/09/12 01:01:20;;;;;;;2.20;1.00;;;;;;;13.59;100.00;96273.88;5114140;27;20200;-72
2022/09/12 01:03:47;;;;;;;2.60;1.10;;;;;;;13.51;100.00;96263.47;5102775;27;20199;-72
2022/09/12 01:06:19;;;;;;;1.77;0.90;;;;;;;13.49;100.00;96279.16;5096744;28;20208;-72
2022/09/12 01:08:48;;;;;;;2.63;1.07;;;;;;;13.52;100.00;96275.97;5100151;27;20208;-73
2022/09/12 01:11:16;;;;;;;1.13;0.83;;;;;;;13.56;100.00;96276.25;5098433;28;20228;-72
2022/09/12 01:13:45;;;;;;;2.17;0.97;;;;;;;13.58;100.00;96272.22;5102166;28;20258;-73
2022/09/12 01:16:13;;;;;;;2.43;1.10;;;;;;;13.55;100.00;96261.03;5093436;28;20209;-73
2022/09/12 01:19:02;;;;;;;1.80;1.10;;;;;;;13.49;100.00;96264.78;5092495;28;20196;-73
2022/09/12 01:21:39;;;;;;;2.47;1.00;;;;;;;13.45;100.00;96261.72;5099324;28;20220;-73
2022/09/12 01:24:54;;;;;;;1.50;1.00;;;;;;;13.43;100.00;96260.34;5093467;28;20306;-73
2022/09/12 01:27:44;;;;;;;1.90;1.10;;;;;;;13.36;100.00;96259.69;5026573;28;20241;-73
2022/09/12 01:30:37;;;;;;;2.60;1.00;;;;;;;13.38;100.00;96258.38;5028955;28;20195;-72
2022/09/12 01:33:39;;;;;;;1.43;1.10;;;;;;;13.36;100.00;96265.09;5090109;28;20276;-73
2022/09/12 01:36:29;;;;;;;2.00;1.10;;;;;;;13.30;100.00;96258.81;5077525;28;20215;-73
2022/09/12 01:39:02;;;;;;;1.70;1.20;;;;;;;13.24;100.00;96252.50;5098617;28;20243;-72
2022/09/12 01:41:34;;;;;;;1.43;1.13;;;;;;;13.23;100.00;96250.03;5094400;28;20228;-73
2022/09/12 01:44:11;;;;;;;2.83;0.97;;;;;;;13.20;100.00;96245.91;5091171;28;20292;-72
2022/09/12 01:46:44;;;;;;;2.40;1.10;;;;;;;13.11;100.00;96243.84;5092864;28;20227;-73
2022/09/12 01:49:17;;;;;;;3.50;1.00;;;;;;;13.14;100.00;96238.78;5101978;28;20210;-72
2022/09/12 01:51:52;;;;;;;0.90;0.80;;;;;;;13.08;100.00;96233.53;5099430;28;20219;-72
2022/09/12 01:54:24;;;;;;;0.80;0.80;;;;;;;13.17;100.00;96232.06;5105442;28;20253;-72
2022/09/12 01:56:56;;;;;;;2.00;1.00;;;;;;;13.13;100.00;96226.31;5098992;28;20293;-72
2022/09/12 01:59:26;;;;;;;3.30;0.90;;;;;;;13.15;100.00;96228.78;5098050;28;20228;-73
2022/09/12 02:02:05;;;;;;;1.57;1.10;;;;;;;13.14;100.00;96227.13;5101306;28;20211;-72
2022/09/12 02:04:38;;;;;;;2.30;1.00;;;;;;;13.16;100.00;96214.16;5092878;28;20203;-72
2022/09/12 02:07:13;;;;;;;0.80;0.80;;;;;;;13.13;100.00;96211.91;5100812;27;20205;-72
2022/09/12 02:09:46;;;;;;;2.33;0.90;;;;;;;13.09;100.00;96221.59;5090960;28;20200;-72
2022/09/12 02:12:18;;;;;;;1.47;1.00;;;;;;;13.02;100.00;96219.06;5106292;27;20289;-72
2022/09/12 02:14:49;;;;;;;1.80;1.00;;;;;;;12.96;100.00;96224.66;5097175;27;20234;-73
2022/09/12 02:17:21;;;;;;;1.27;1.10;;;;;;;12.95;100.00;96223.00;5098235;27;20207;-72
2022/09/12 02:19:53;;;;;;;1.53;0.83;;;;;;;12.97;100.00;96215.44;5103525;27;20224;-73
2022/09/12 02:22:25;;;;;;;0.80;0.80;;;;;;;12.93;100.00;96212.41;5130118;27;20253;-72
2022/09/12 02:24:57;;;;;;;4.30;1.03;;;;;;;12.95;100.00;96223.00;5095497;27;20243;-73
2022/09/12 02:27:30;;;;;;;3.00;1.10;;;;;;;12.92;100.00;96223.53;5094740;27;20212;-73
2022/09/12 02:29:57;;;;;;;3.50;1.20;;;;;;;12.85;100.00;96213.66;5112275;27;20283;-73
2022/09/12 02:32:31;;;;;;;0.87;0.80;;;;;;;12.81;100.00;96212.53;5096041;27;20214;-72
2022/09/12 02:35:06;;;;;;;1.97;1.00;;;;;;;12.80;100.00;96216.28;5104192;27;20195;-73
2022/09/12 02:37:45;;;;;;;0.97;0.97;;;;;;;12.83;100.00;96218.53;5114810;27;20208;-72
2022/09/12 02:40:14;;;;;;;2.03;1.10;;;;;;;12.85;100.00;96219.06;5101096;28;20228;-72
2022/09/12 02:42:41;;;;;;;2.07;0.83;;;;;;;12.87;100.00;96211.53;5116532;27;20212;-72
2022/09/12 02:45:09;;;;;;;1.20;1.00;;;;;;;12.87;100.00;96216.94;5110521;27;20204;-72
2022/09/12 02:47:43;;;;;;;1.30;1.00;;;;;;;12.81;100.00;96227.94;5114105;27;20208;-73
2022/09/12 02:50:11;;;;;;;3.07;0.90;;;;;;;12.78;100.00;96228.44;5110621;27;20199;-72
2022/09/12 02:52:39;;;;;;;1.00;1.00;;;;;;;12.72;100.00;96221.31;5092825;27;20227;-72
2022/09/12 02:55:10;;;;;;;1.93;1.00;;;;;;;12.68;100.00;96214.72;5116011;27;20204;-72
2022/09/12 02:57:37;;;;;;;1.67;0.90;;;;;;;12.68;100.00;96222.84;5104065;27;20216;-72
2022/09/12 03:00:06;;;;;;;1.30;0.80;;;;;;;12.68;100.00;96218.25;5119333;27;20297;-72
2022/09/12 03:02:54;;;;;;;1.60;1.00;;;;;;;12.69;100.00;96225.31;5119351;27;20260;-72
2022/09/12 03:05:28;;;;;;;1.10;0.80;;;;;;;12.66;100.00;96219.59;5098772;27;20228;-73
2022/09/12 03:08:19;;;;;;;2.33;1.00;;;;;;;12.57;100.00;96223.78;5097513;28;20213;-72
2022/09/12 03:11:09;;;;;;;1.77;1.13;;;;;;;12.43;100.00;96212.41;5121241;27;20241;-72
2022/09/12 03:13:45;;;;;;;1.90;1.20;;;;;;;12.41;100.00;96226.22;5100892;27;20204;-72
2022/09/12 03:16:22;;;;;;;2.13;1.20;;;;;;;12.41;100.00;96222.69;5101239;27;20222;-72
2022/09/12 03:18:58;;;;;;;2.60;1.87;;;;;;;12.30;100.00;96221.69;5115709;27;20203;-72
2022/09/12 03:21:33;;;;;;;2.27;1.10;;;;;;;12.21;100.00;96222.31;5101709;27;20223;-72
2022/09/12 03:24:13;;;;;;;1.27;1.00;;;;;;;12.12;100.00;96217.31;5093311;27;20249;-72
2022/09/12 03:26:45;;;;;;;1.23;0.90;;;;;;;12.10;100.00;96227.56;5111090;27;20204;-72
2022/09/12 03:29:13;;;;;;;1.87;1.10;;;;;;;12.13;100.00;96218.97;5102253;27;20212;-72
2022/09/12 03:31:50;;;;;;;1.87;0.90;;;;;;;12.19;100.00;96227.16;5096874;27;20396;-72
2022/09/12 03:34:18;;;;;;;1.40;1.30;;;;;;;12.20;100.00;96223.38;5115555;27;20282;-72
2022/09/12 03:36:45;;;;;;;2.27;1.30;;;;;;;12.18;100.00;96217.38;5092658;27;22104;-73
2022/09/12 03:39:13;;;;;;;2.83;1.30;;;;;;;12.14;100.00;96227.91;5105972;28;20203;-73
2022/09/12 03:41:40;;;;;;;4.23;1.10;;;;;;;12.13;100.00;96221.66;5110841;27;20273;-72
2022/09/12 03:44:07;;;;;;;2.83;1.30;;;;;;;12.12;100.00;96224.59;5115890;27;20203;-72
2022/09/12 03:46:34;;;;;;;1.93;1.17;;;;;;;12.01;100.00;96229.00;5103755;28;20214;-72
2022/09/12 03:49:01;;;;;;;1.30;1.00;;;;;;;12.01;100.00;96222.75;5117810;28;20210;-72
2022/09/12 03:51:30;;;;;;;2.90;1.20;;;;;;;12.00;100.00;96221.13;5103142;28;20273;-72
2022/09/12 03:53:57;;;;;;;2.20;1.00;;;;;;;12.02;100.00;96224.41;5098140;28;20200;-72
2022/09/12 03:56:24;;;;;;;2.20;1.90;;;;;;;12.04;100.00;96217.69;5103130;28;20223;-72
2022/09/12 03:58:51;;;;;;;2.90;1.20;;;;;;;11.95;100.00;96224.56;5099815;28;20211;-73
2022/09/12 04:01:20;;;;;;;2.10;1.00;;;;;;;11.89;100.00;96222.00;5101963;28;20220;-72
2022/09/12 04:03:48;;;;;;;2.87;0.80;;;;;;;11.90;100.00;96229.06;5098220;28;20332;-73
2022/09/12 04:06:17;;;;;;;2.43;0.80;;;;;;;11.94;100.00;96217.50;5092688;28;20215;-73
2022/09/12 04:08:50;;;;;;;1.57;0.70;;;;;;;11.94;100.00;96219.38;5115813;28;20279;-73
2022/09/12 04:11:20;;;;;;;2.20;1.33;;;;;;;11.92;100.00;96224.22;5087691;28;20251;-72
2022/09/12 04:13:48;;;;;;;1.30;1.20;;;;;;;11.83;100.00;96229.19;5097509;28;20208;-73
2022/09/12 04:16:16;;;;;;;2.23;1.13;;;;;;;11.81;100.00;96242.16;5100736;28;20291;-72
2022/09/12 04:18:43;;;;;;;1.60;1.40;;;;;;;11.78;100.00;96244.50;5090983;28;20258;-73
2022/09/12 04:21:13;;;;;;;3.00;1.10;;;;;;;11.79;100.00;96238.03;5095808;28;20220;-72
2022/09/12 04:23:40;;;;;;;1.33;1.10;;;;;;;11.80;100.00;96237.81;5093200;28;20192;-72
2022/09/12 04:26:08;;;;;;;1.27;1.00;;;;;;;11.80;100.00;96237.81;5096020;28;20232;-72
2022/09/12 04:28:36;;;;;;;2.03;1.23;;;;;;;11.77;100.00;96243.69;5095267;28;20204;-71
2022/09/12 04:31:06;;;;;;;2.47;0.80;;;;;;;11.80;100.00;96243.22;5095668;28;20216;-71
2022/09/12 04:33:33;;;;;;;0.80;0.80;;;;;;;11.74;100.00;96242.28;5092576;28;20197;-72
2022/09/12 04:36:05;;;;;;;0.93;0.93;;;;;;;11.74;100.00;96236.88;5095343;28;20270;-71
2022/09/12 04:38:33;;;;;;;1.57;0.93;;;;;;;11.77;100.00;96243.69;5098395;28;20192;-72
2022/09/12 04:41:00;;;;;;;3.23;0.93;;;;;;;11.79;100.00;96243.44;5093060;28;20224;-72
2022/09/12 04:43:28;;;;;;;2.07;0.90;;;;;;;11.75;100.00;96246.63;5107389;28;20226;-71
2022/09/12 04:45:55;;;;;;;1.20;1.10;;;;;;;11.69;100.00;96242.16;5092600;28;20197;-72
2022/09/12 04:48:22;;;;;;;2.93;1.30;;;;;;;11.71;100.00;96244.63;5106881;27;20268;-72
2022/09/12 04:50:49;;;;;;;2.17;0.93;;;;;;;11.74;100.00;96249.53;5102856;28;20303;-71
2022/09/12 04:53:16;;;;;;;0.83;0.83;;;;;;;11.75;100.00;96251.22;5099298;28;20205;-70
2022/09/12 04:55:43;;;;;;;0.93;0.90;;;;;;;11.73;100.00;96251.44;5098848;27;20282;-71
2022/09/12 04:58:10;;;;;;;0.90;0.80;;;;;;;11.76;100.00;96252.84;5098827;28;20208;-71
2022/09/12 05:00:38;;;;;;;6.03;0.90;;;;;;;11.74;100.00;96250.38;5112201;27;20225;-72
2022/09/12 05:03:05;;;;;;;2.13;0.90;;;;;;;11.70;100.00;96254.63;5093160;28;20220;-73
2022/09/12 05:05:32;;;;;;;1.93;0.70;;;;;;;11.70;100.00;96245.69;5095962;28;20209;-72
2022/09/12 05:07:59;;;;;;;2.80;1.00;;;;;;;11.65;100.00;96253.69;5094069;28;20201;-71
2022/09/12 05:10:27;;;;;;;1.73;0.90;;;;;;;11.58;100.00;96256.50;5098440;28;20215;-72
2022/09/12 05:12:54;;;;;;;2.03;1.00;;;;;;;11.58;100.00;96252.97;5126531;27;20234;-72
2022/09/12 05:15:21;;;;;;;1.27;0.80;;;;;;;11.57;100.00;96259.47;5111837;28;20204;-72
2022/09/12 05:17:49;;;;;;;4.07;1.17;;;;;;;11.56;100.00;96260.53;5102122;28;20205;-72
2022/09/12 05:20:16;;;;;;;1.50;0.93;;;;;;;11.49;100.00;96262.53;5105302;27;20242;-71
2022/09/12 05:22:43;;;;;;;0.77;0.77;;;;;;;11.52;100.00;96264.75;5095670;28;20298;-72
2022/09/12 05:25:10;;;;;;;3.03;0.93;;;;;;;11.50;100.00;96269.59;5126179;27;20226;-72
2022/09/12 05:27:37;;;;;;;1.07;0.93;;;;;;;11.44;100.00;96270.53;5098536;28;20212;-72
2022/09/12 05:30:06;;;;;;;0.80;0.80;;;;;;;11.42;100.00;96269.94;5098923;27;20287;-72
2022/09/12 05:32:33;;;;;;;1.47;1.00;;;;;;;11.41;100.00;96271.81;5121812;27;20200;-72
2022/09/12 05:35:01;;;;;;;1.47;1.00;;;;;;;11.40;100.00;96263.97;5094193;27;20197;-72
2022/09/12 05:37:29;;;;;;;1.53;1.00;;;;;;;11.48;100.00;96261.72;5125206;27;20235;-72
2022/09/12 05:39:58;;;;;;;4.30;0.80;;;;;;;11.47;100.00;96259.25;5099542;28;20196;-72
2022/09/12 05:42:25;;;;;;;0.70;0.70;;;;;;;11.50;100.00;96258.75;5104128;28;20224;-72
2022/09/12 05:44:52;;;;;;;1.80;1.20;;;;;;;11.54;100.00;96255.38;5096035;28;20213;-72
2022/09/12 05:47:19;;;;;;;5.03;0.83;;;;;;;11.61;100.00;96250.63;5121215;27;20389;-72
2022/09/12 05:49:46;;;;;;;1.40;0.70;;;;;;;11.74;100.00;96257.66;5123456;27;20216;-72
2022/09/12 05:52:15;;;;;;;2.20;1.10;;;;;;;11.84;100.00;96251.66;5093480;27;20344;-72
2022/09/12 05:54:42;;;;;;;1.23;0.67;;;;;;;11.91;100.00;96260.47;5096477;27;20204;-72
2022/09/12 05:57:10;;;;;;;1.20;1.10;;;;;;;11.87;100.00;96260.13;5095444;28;20228;-72
2022/09/12 05:59:37;;;;;;;1.47;1.00;;;;;;;11.84;100.00;96255.19;5115243;27;20200;-72
2022/09/12 06:02:04;;;;;;;1.43;0.97;;;;;;;11.85;100.00;96262.25;5109733;27;20300;-73
2022/09/12 06:04:31;;;;;;;1.83;1.50;;;;;;;11.80;100.00;96254.03;5108077;27;20192;-72
2022/09/12 06:06:58;;;;;;;1.10;0.90;;;;;;;11.84;100.00;96255.19;5094137;27;20211;-72
2022/09/12 06:09:26;;;;;;;2.17;0.53;;;;;;;11.84;100.00;96254.34;5100926;27;20195;-72
2022/09/12 06:11:54;;;;;;;1.23;0.90;;;;;;;11.83;100.00;96253.53;5099347;28;20220;-73
2022/09/12 06:14:21;;;;;;;0.80;0.80;;;;;;;11.89;100.00;96255.31;5094020;28;20211;-72
2022/09/12 06:16:49;;;;;;;1.23;0.70;;;;;;;11.96;100.00;96253.28;5111100;27;20216;-72
2022/09/12 06:19:17;;;;;;;1.17;0.87;;;;;;;12.02;100.00;96255.00;5098411;27;20303;-72
2022/09/12 06:21:46;;;;;;;5.07;1.60;;;;;;;12.01;100.00;96260.66;5109763;27;20227;-72
2022/09/12 06:24:13;;;;;;;4.13;1.10;;;;;;;11.95;100.00;96248.09;5096908;27;20218;-72
2022/09/12 06:26:42;;;;;;;1.00;0.80;;;;;;;11.79;100.00;96255.09;5101006;28;20276;-72
2022/09/12 06:29:12;;;;;;;2.97;1.10;;;;;;;11.74;100.00;96246.81;5099255;28;20204;-72
2022/09/12 06:31:40;;;;;;;4.37;1.47;;;;;;;11.74;100.00;96252.22;5093597;27;20214;-73
2022/09/12 06:34:09;;;;;;;9.47;1.30;;;;;;;11.62;100.00;96256.88;5095284;28;20219;-73
2022/09/12 06:36:38;;;;;;;2.93;1.40;;;;;;;11.55;100.00;96250.78;5116437;27;20547;-72
2022/09/12 06:39:08;;;;;;;6.70;1.27;;;;;;;11.53;100.00;96252.88;5118150;27;20210;-72
2022/09/12 06:41:35;;;;;;;6.47;1.77;;;;;;;11.59;100.00;96241.09;5094979;28;20227;-72
2022/09/12 06:44:03;;;;;;;4.13;1.20;;;;;;;11.63;100.00;96242.28;5101842;27;20214;-72
2022/09/12 06:46:31;;;;;;;6.83;1.67;;;;;;;11.63;100.00;96245.00;5096869;27;20249;-72
2022/09/12 06:48:59;;;;;;;4.43;1.40;;;;;;;11.68;100.00;96250.50;5110494;28;20203;-73
2022/09/12 06:51:27;;;;;;;7.57;1.60;;;;;;;11.72;100.00;96251.69;5113490;27;20287;-72
2022/09/12 06:53:56;;;;;;;1.93;1.10;;;;;;;11.71;100.00;96250.03;5102636;27;20258;-72
2022/09/12 06:56:25;;;;;;;4.53;1.50;;;;;;;11.69;100.00;96252.97;5123612;27;20219;-73
2022/09/12 06:58:53;;;;;;;2.57;1.30;;;;;;;11.68;100.00;96247.78;5097707;27;20227;-72
2022/09/12 07:01:23;;;;;;;3.13;1.50;;;;;;;11.77;100.00;96259.09;5093574;27;20303;-72
2022/09/12 07:03:51;;;;;;;1.80;1.10;;;;;;;11.74;100.00;96258.50;5112647;27;20287;-72
2022/09/12 07:06:20;;;;;;;1.87;1.40;;;;;;;11.77;100.00;96259.09;5116843;27;20238;-73
2022/09/12 07:08:48;;;;;;;2.10;1.07;;;;;;;11.75;100.00;96262.03;5096470;27;20295;-72
2022/09/12 07:11:16;;;;;;;2.40;1.27;;;;;;;11.76;100.00;96269.09;5092990;27;20232;-72
2022/09/12 07:13:45;;;;;;;3.80;1.20;;;;;;;11.74;100.00;96269.31;5095612;28;20228;-72
2022/09/12 07:16:14;;;;;;;1.53;1.07;;;;;;;11.74;100.00;96269.31;5115888;27;20235;-72
2022/09/12 07:18:42;;;;;;;1.60;1.00;;;;;;;11.71;100.00;96260.84;5110425;27;20199;-72
2022/09/12 07:21:12;;;;;;;7.30;1.43;;;;;;;11.70;100.00;96265.44;5099132;28;20223;-72
2022/09/12 07:23:40;;;;;;;2.20;0.90;;;;;;;11.75;100.00;96268.25;5096173;27;20301;-72
2022/09/12 07:26:10;;;;;;;1.53;0.90;;;;;;;11.77;100.00;96262.63;5100623;28;20192;-72
2022/09/12 07:28:37;;;;;;;1.00;0.90;;;;;;;11.74;100.00;96266.63;5097784;27;20210;-72
2022/09/12 07:31:09;;;;;;;3.03;1.20;;;;;;;11.73;100.00;96267.66;5100579;28;20207;-72
2022/09/12 07:33:37;;;;;;;0.80;0.80;;;;;;;11.75;100.00;96265.56;5111473;27;20191;-72
2022/09/12 07:36:09;;;;;;;1.73;0.83;;;;;;;11.76;100.00;96263.69;5106960;27;20224;-72
2022/09/12 07:38:36;;;;;;;1.03;0.83;;;;;;;11.77;100.00;96265.31;5090438;28;20233;-72
2022/09/12 07:41:10;;;;;;;1.37;0.90;;;;;;;11.82;100.00;96273.56;5108129;28;20211;-72
2022/09/12 07:43:37;;;;;;;0.77;0.70;;;;;;;11.87;100.00;96267.41;5090425;28;20290;-72
2022/09/12 07:46:05;;;;;;;1.47;0.90;;;;;;;11.91;100.00;96265.88;5114343;27;20204;-73
2022/09/12 07:48:32;;;;;;;1.77;1.20;;;;;;;11.97;100.00;96264.91;5091352;28;20237;-72
2022/09/12 07:51:00;;;;;;;1.23;1.10;;;;;;;12.03;100.00;96274.78;5094342;28;20215;-72
2022/09/12 07:53:32;;;;;;;1.23;0.80;;;;;;;12.07;100.00;96274.06;5096129;28;20215;-72
2022/09/12 07:56:01;;;;;;;0.90;0.70;;;;;;;12.03;100.00;96270.19;5105584;28;20230;-72
2022/09/12 07:58:29;;;;;;;1.67;0.77;;;;;;;12.05;100.00;96270.78;5090539;28;20263;-72
2022/09/12 08:01:02;;;;;;;0.60;0.60;;;;;;;12.12;100.00;96265.19;5114370;28;20240;-73
2022/09/12 08:03:29;;;;;;;0.93;0.70;;;;;;;12.21;100.00;96265.63;5098401;28;20223;-72
2022/09/12 08:06:03;;;;;;;0.80;0.80;;;;;;;12.63;100.00;96263.41;5116517;28;20236;-72
2022/09/12 08:08:31;;;;;;;1.07;0.77;;;;;;;13.15;100.00;96264.00;5100475;28;20199;-72
2022/09/12 08:10:58;;;;;;;0.67;0.67;;;;;;;13.54;100.00;96262.13;5101039;28;20207;-73
2022/09/12 08:13:26;;;;;;;1.77;0.70;;;;;;;13.82;100.00;96269.28;5113054;27;20207;-72
2022/09/12 08:15:58;;;;;;;2.10;0.70;;;;;;;14.33;100.00;96268.78;5100281;28;20211;-72
2022/09/12 08:18:25;;;;;;;1.30;0.80;;;;;;;14.46;100.00;96267.56;5095981;28;20211;-72
2022/09/12 08:20:57;;;;;;;0.60;0.60;;;;;;;14.65;100.00;96266.13;5107679;28;20215;-73
2022/09/12 08:23:24;;;;;;;0.70;0.70;;;;;;;15.09;100.00;96269.50;5119431;27;20220;-73
2022/09/12 08:25:55;;;;;;;1.63;0.70;;;;;;;15.54;100.00;96268.19;5096960;28;20219;-72
2022/09/12 08:28:22;;;;;;;0.60;0.60;;;;;;;15.72;100.00;96259.59;5090364;28;20204;-73
2022/09/12 08:30:49;;;;;;;1.20;0.80;;;;;;;15.80;100.00;96264.53;5110112;28;20201;-73
2022/09/12 08:33:16;;;;;;;0.80;0.70;;;;;;;16.07;100.00;96258.94;5091589;28;20201;-73
2022/09/12 08:35:43;;;;;;;0.60;0.60;;;;;;;16.39;97.68;96261.47;5108339;28;20205;-73
2022/09/12 08:38:10;;;;;;;1.57;0.70;;;;;;;16.65;92.64;96254.19;5105869;28;20272;-73
2022/09/12 08:40:47;;;;;;;0.60;0.60;;;;;;;17.13;93.08;96254.75;5109890;28;20244;-73
2022/09/12 08:43:31;;;;;;;0.60;0.60;;;;;;;17.34;90.59;96249.00;5119799;28;20234;-73
2022/09/12 08:46:06;;;;;;;0.97;0.70;;;;;;;17.50;86.06;96257.97;5123979;27;20225;-73
2022/09/12 08:48:33;;;;;;;1.33;0.70;;;;;;;17.70;81.67;96255.22;5108812;28;20211;-73
2022/09/12 08:51:03;;;;;;;4.53;0.90;;;;;;;17.86;74.67;96252.47;5112436;28;20257;-73
2022/09/12 08:53:35;;;;;;;2.23;0.80;;;;;;;18.01;72.47;96252.41;5097572;28;20202;-73
2022/09/12 08:56:07;;;;;;;0.60;0.60;;;;;;;18.24;71.52;96250.91;5111450;28;20227;-73
2022/09/12 08:58:39;;;;;;;1.27;0.80;;;;;;;18.78;74.56;96251.72;5091400;28;20489;-73
2022/09/12 09:01:12;;;;;;;0.70;0.70;;;;;;;18.90;68.75;96249.44;5108600;27;20225;-73
2022/09/12 09:04:01;;;;;;;1.23;0.70;;;;;;;18.96;68.54;96258.44;5116209;27;20224;-73
2022/09/12 09:06:46;;;;;;;2.38;0.70;;;;;;;18.94;71.66;96248.88;5103492;27;20215;-73
2022/09/12 09:09:21;;;;;;;1.38;1.00;;;;;;;19.04;72.23;96248.78;5125018;27;20223;-73
2022/09/12 09:11:59;;;;;;;0.70;0.70;;;;;;;19.23;68.41;96252.44;5104149;27;20263;-73
2022/09/12 09:14:49;;;;;;;0.80;0.80;;;;;;;19.50;64.50;96258.25;5105805;27;20235;-73
2022/09/12 09:17:22;;;;;;;0.75;0.75;;;;;;;19.76;64.72;96245.09;5124251;27;20192;-73
2022/09/12 09:19:55;;;;;;;1.15;0.60;;;;;;;20.05;64.49;96236.81;5095076;27;20204;-73
2022/09/12 09:22:35;;;;;;;1.90;0.60;;;;;;;20.16;63.66;96243.00;5103711;27;20212;-74
2022/09/12 09:25:07;;;;;;;1.20;0.90;;;;;;;20.11;62.75;96243.84;5115498;27;20192;-73
2022/09/12 09:27:41;;;;;;;1.13;0.68;;;;;;;20.14;61.23;96239.72;5117353;27;20196;-73
2022/09/12 09:30:16;;;;;;;0.88;0.63;;;;;;;19.96;58.55;96233.09;5100440;27;20215;-73
2022/09/12 09:32:47;;;;;;;3.70;0.80;;;;;;;20.04;60.19;96232.44;5096848;27;20268;-73
2022/09/12 09:35:18;;;;;;;1.58;0.73;;;;;;;20.04;59.21;96237.94;5100763;27;20227;-73
2022/09/12 09:38:00;;;;;;;0.77;0.70;;;;;;;19.92;58.95;96227.38;5097701;27;20226;-74
2022/09/12 09:40:38;;;;;;;1.02;0.73;;;;;;;20.06;58.76;96229.41;5105630;28;20291;-73
2022/09/12 09:43:14;;;;;;;1.75;0.93;;;;;;;20.41;59.40;96220.75;5115731;27;20303;-73
2022/09/12 09:45:43;;;;;;;1.48;0.80;;;;;;;20.69;58.70;96221.69;5094691;28;20215;-74
2022/09/12 09:48:18;;;;;;;0.70;0.70;;;;;;;20.92;57.67;96223.56;5102856;27;20199;-73
2022/09/12 09:50:48;;;;;;;1.38;0.82;;;;;;;21.14;57.08;96215.50;5098891;27;20209;-74
2022/09/12 09:53:31;;;;;;;0.88;0.73;;;;;;;21.32;56.14;96216.59;5096149;27;20208;-74
2022/09/12 09:56:02;;;;;;;2.28;0.88;;;;;;;21.53;57.25;96214.25;5109720;27;20237;-74
2022/09/12 09:58:31;;;;;;;3.75;0.90;;;;;;;21.61;58.35;96213.56;5106940;27;20199;-74
2022/09/12 10:01:05;;;;;;;2.38;0.80;;;;;;;21.61;57.19;96213.56;5112137;27;20242;-74
2022/09/12 10:03:37;;;;;;;2.95;0.80;;;;;;;21.64;56.73;96207.47;5097418;27;20219;-74
2022/09/12 10:06:20;;;;;;;2.15;1.10;;;;;;;21.78;57.93;96205.53;5104819;27;20208;-74
2022/09/12 10:08:48;;;;;;;1.58;0.90;;;;;;;21.98;55.03;96207.09;5096444;27;20210;-74
2022/09/12 10:11:21;;;;;;;2.97;1.10;;;;;;;21.99;54.49;96214.22;5095297;27;20219;-74
2022/09/12 10:13:58;;;;;;;2.58;0.80;;;;;;;22.11;55.88;96208.22;5101098;27;20266;-74
2022/09/12 10:16:29;;;;;;;0.70;0.70;;;;;;;22.19;54.27;96202.81;5108824;28;20204;-74
2022/09/12 10:18:58;;;;;;;0.63;0.63;;;;;;;22.17;52.62;96207.00;5122475;27;20215;-74
2022/09/12 10:21:30;;;;;;;1.05;0.88;;;;;;;22.12;52.56;96207.09;5099883;28;20215;-73
2022/09/12 10:24:16;;;;;;;0.98;0.88;;;;;;;22.13;55.33;96206.78;5113652;27;20212;-74
2022/09/12 10:26:49;;;;;;;1.08;0.80;;;;;;;22.23;54.14;96209.31;5098971;27;20207;-73
2022/09/12 10:29:23;;;;;;;1.00;0.90;;;;;;;22.18;52.12;96208.63;5103217;27;20204;-74
2022/09/12 10:31:54;;;;;;;1.42;0.80;;;;;;;22.31;54.36;96201.47;5124714;27;20214;-75
2022/09/12 10:34:26;;;;;;;1.00;0.80;;;;;;;22.40;55.21;96192.16;5092097;28;20208;-74
2022/09/12 10:36:59;;;;;;;1.40;0.90;;;;;;;22.48;53.92;96194.19;5098619;28;20246;-74
2022/09/12 10:39:27;;;;;;;2.05;1.10;;;;;;;22.56;56.60;96195.38;5118045;27;20200;-74
2022/09/12 10:41:54;;;;;;;1.77;0.90;;;;;;;22.57;57.76;96186.81;5104939;27;20199;-74
2022/09/12 10:44:26;;;;;;;1.00;0.82;;;;;;;22.58;59.52;96185.72;5095622;27;20204;-74
2022/09/12 10:46:55;;;;;;;2.75;1.00;;;;;;;22.71;59.30;96189.56;5125561;27;20200;-74
2022/09/12 10:49:25;;;;;;;3.67;0.90;;;;;;;22.73;57.88;96190.03;5111225;27;20196;-74
2022/09/12 10:51:54;;;;;;;3.15;1.20;;;;;;;22.80;59.65;96189.63;5092704;28;20299;-74
2022/09/12 10:54:24;;;;;;;2.05;1.15;;;;;;;22.77;61.70;96187.50;5100068;28;20204;-74
2022/09/12 10:57:24;;;;;;;1.63;1.00;;;;;;;22.96;60.20;96188.16;5105768;28;20235;-73
2022/09/12 11:00:04;;;;;;;2.00;1.00;;;;;;;22.55;61.82;96180.00;5075694;27;20208;-74
2022/09/12 11:02:48;;;;;;;1.85;1.05;;;;;;;22.78;61.14;96181.69;5118620;27;20244;-74
2022/09/12 11:05:28;;;;;;;1.60;1.33;;;;;;;22.97;60.02;96182.31;5113898;27;20200;-73
2022/09/12 11:08:03;;;;;;;1.80;1.02;;;;;;;23.14;57.25;96181.63;5105909;27;20204;-74
2022/09/12 11:10:38;;;;;;;1.92;1.00;;;;;;;23.39;57.93;96175.44;5125139;27;20207;-74
2022/09/12 11:13:18;;;;;;;1.95;1.00;;;;;;;23.46;57.96;96180.53;5096247;28;20231;-74
2022/09/12 11:16:01;;;;;;;1.75;0.90;;;;;;;23.41;54.61;96169.63;5115073;27;20210;-74
2022/09/12 11:18:54;;;;;;;2.03;1.00;;;;;;;23.38;56.08;96182.09;5096974;28;20223;-74
2022/09/12 11:21:46;;;;;;;1.35;1.00;;;;;;;23.64;58.36;96168.47;5093583;28;20226;-74
2022/09/12 11:24:40;;;;;;;2.15;0.90;;;;;;;23.86;56.25;96166.78;5098596;28;20220;-74
2022/09/12 11:27:25;;;;;;;1.83;1.10;;;;;;;23.99;54.55;96157.53;5113360;27;20200;-74
2022/09/12 11:29:57;;;;;;;2.60;1.05;;;;;;;24.09;54.44;96166.34;5103890;28;20214;-74
2022/09/12 11:33:07;;;;;;;1.17;0.98;;;;;;;24.26;51.50;96159.25;5098649;28;20200;-73
2022/09/12 11:35:47;;;;;;;1.70;0.80;;;;;;;24.40;51.16;96160.78;5105268;28;20200;-74
2022/09/12 11:38:45;;;;;;;0.70;0.70;;;;;;;24.48;48.76;96157.22;5111600;27;20233;-74
2022/09/12 11:41:20;;;;;;;2.45;0.90;;;;;;;24.59;47.14;96165.97;5095172;27;20306;-74
2022/09/12 11:43:51;;;;;;;1.27;1.00;;;;;;;24.86;46.60;96159.28;5094455;28;20227;-74
2022/09/12 11:46:22;;;;;;;1.48;1.02;;;;;;;24.89;45.85;96159.47;5089650;28;20215;-74
2022/09/12 11:48:56;;;;;;;2.90;1.00;;;;;;;25.09;46.26;96151.69;5094275;28;20212;-74